createdAt,value
2022-12-25T00:01:35.136Z,18.27
2022-12-25T00:04:03.074Z,20.20
2022-12-25T00:06:30.908Z,23.40
2022-12-25T00:09:00.037Z,24.30
2022-12-25T00:11:27.850Z,22.30
2022-12-25T00:13:55.673Z,21.88
2022-12-25T00:16:25.319Z,17.67
2022-12-25T00:18:53.782Z,19.13
2022-12-25T00:21:22.610Z,20.58
2022-12-25T00:23:54.539Z,17.90
2022-12-25T00:26:28.438Z,17.15
2022-12-25T00:28:57.513Z,20.75
2022-12-25T00:31:26.227Z,20.38
2022-12-25T00:33:54.515Z,15.80
2022-12-25T00:36:23.873Z,20.05
2022-12-25T00:38:51.684Z,23.15
2022-12-25T00:41:42.287Z,18.38
2022-12-25T00:44:13.838Z,16.60
2022-12-25T00:46:42.394Z,19.17
2022-12-25T00:49:10.405Z,18.67
2022-12-25T00:51:38.332Z,17.77
2022-12-25T00:54:06.257Z,18.50
2022-12-25T00:56:34.024Z,18.42
2022-12-25T00:59:01.955Z,15.90
2022-12-25T01:01:31.294Z,19.80
2022-12-25T01:03:59.752Z,17.95
2022-12-25T01:06:27.877Z,17.63
2022-12-25T01:09:12.974Z,18.02
2022-12-25T01:11:40.746Z,17.13
2022-12-25T01:14:08.641Z,16.70
2022-12-25T01:16:38.063Z,15.10
2022-12-25T01:19:05.910Z,17.98
2022-12-25T01:21:33.913Z,13.70
2022-12-25T01:24:02.580Z,16.83
2022-12-25T01:26:30.344Z,19.58
2022-12-25T01:28:58.105Z,17.77
2022-12-25T01:31:27.484Z,18.55
2022-12-25T01:33:56.653Z,14.80
2022-12-25T01:36:25.715Z,14.85
2022-12-25T01:38:54.226Z,14.05
2022-12-25T01:41:26.920Z,13.95
2022-12-25T01:44:00.731Z,14.47
2022-12-25T01:46:28.509Z,13.32
2022-12-25T01:48:59.175Z,18.73
2022-12-25T01:51:31.198Z,14.13
2022-12-25T01:54:01.596Z,13.90
2022-12-25T01:56:29.887Z,14.50
2022-12-25T01:58:58.305Z,14.48
2022-12-25T02:01:26.378Z,15.67
2022-12-25T02:03:59.043Z,15.75
2022-12-25T02:06:30.634Z,16.65
2022-12-25T02:08:59.646Z,14.70
2022-12-25T02:11:45.005Z,12.97
2022-12-25T02:14:12.855Z,12.30
2022-12-25T02:16:57.864Z,12.30
2022-12-25T02:19:47.611Z,12.20
2022-12-25T02:22:23.799Z,12.32
2022-12-25T02:24:59.551Z,12.32
2022-12-25T02:27:50.886Z,11.43
2022-12-25T02:30:18.893Z,12.32
2022-12-25T02:32:48.611Z,11.77
2022-12-25T02:35:18.137Z,12.40
2022-12-25T02:37:52.077Z,11.77
2022-12-25T02:40:21.319Z,10.85
2022-12-25T02:43:11.664Z,11.77
2022-12-25T02:45:59.748Z,11.60
2022-12-25T02:48:47.669Z,11.13
2022-12-25T02:51:35.450Z,11.43
2022-12-25T02:54:22.900Z,11.70
2022-12-25T02:57:08.249Z,11.23
2022-12-25T02:59:57.760Z,10.53
2022-12-25T03:02:43.321Z,11.23
2022-12-25T03:05:39.609Z,11.80
2022-12-25T03:08:10.123Z,10.63
2022-12-25T03:11:11.709Z,11.85
2022-12-25T03:13:42.722Z,10.93
2022-12-25T03:16:29.407Z,11.20
2022-12-25T03:18:58.584Z,11.13
2022-12-25T03:21:44.108Z,10.90
2022-12-25T03:24:29.560Z,11.32
2022-12-25T03:26:58.480Z,10.05
2022-12-25T03:29:45.059Z,10.30
2022-12-25T03:32:20.967Z,10.48
2022-12-25T03:35:14.778Z,11.18
2022-12-25T03:38:03.593Z,11.13
2022-12-25T03:40:53.084Z,10.33
2022-12-25T03:43:43.922Z,10.95
2022-12-25T03:46:34.109Z,11.00
2022-12-25T03:49:25.160Z,10.60
2022-12-25T03:52:10.929Z,11.15
2022-12-25T03:54:58.671Z,11.23
2022-12-25T03:57:44.099Z,10.93
2022-12-25T04:00:30.060Z,11.60
2022-12-25T04:03:15.363Z,10.60
2022-12-25T04:06:02.268Z,10.68
2022-12-25T04:08:52.523Z,11.02
2022-12-25T04:11:37.788Z,10.82
2022-12-25T04:14:22.952Z,11.40
2022-12-25T04:17:19.671Z,10.90
2022-12-25T04:20:04.554Z,11.93
2022-12-25T04:22:50.210Z,11.70
2022-12-25T04:25:35.625Z,10.07
2022-12-25T04:28:21.152Z,10.80
2022-12-25T04:31:06.573Z,11.38
2022-12-25T04:33:52.046Z,11.07
2022-12-25T04:36:20.487Z,10.55
2022-12-25T04:38:49.650Z,10.35
2022-12-25T04:41:17.431Z,11.02
2022-12-25T04:43:45.197Z,11.23
2022-12-25T04:46:13.000Z,10.43
2022-12-25T04:48:40.840Z,10.85
2022-12-25T04:51:16.049Z,10.63
2022-12-25T04:53:44.461Z,11.05
2022-12-25T04:56:15.272Z,10.57
2022-12-25T04:58:43.668Z,11.15
2022-12-25T05:01:13.357Z,10.50
2022-12-25T05:03:41.718Z,10.68
2022-12-25T05:06:09.554Z,10.50
2022-12-25T05:08:37.801Z,10.38
2022-12-25T05:11:09.405Z,10.82
2022-12-25T05:13:39.165Z,10.35
2022-12-25T05:16:07.826Z,9.80
2022-12-25T05:18:35.781Z,10.18
2022-12-25T05:21:04.432Z,9.82
2022-12-25T05:23:32.456Z,9.57
2022-12-25T05:26:00.236Z,9.95
2022-12-25T05:28:28.037Z,9.82
2022-12-25T05:30:58.974Z,9.85
2022-12-25T05:33:26.802Z,9.50
2022-12-25T05:35:54.631Z,9.77
2022-12-25T05:38:22.447Z,9.75
2022-12-25T05:40:52.350Z,9.27
2022-12-25T05:43:20.784Z,9.75
2022-12-25T05:45:48.676Z,9.05
2022-12-25T05:48:18.016Z,9.32
2022-12-25T05:50:45.895Z,9.10
2022-12-25T05:53:15.295Z,9.30
2022-12-25T05:55:44.575Z,8.85
2022-12-25T05:58:13.896Z,8.60
2022-12-25T06:00:44.189Z,9.00
2022-12-25T06:03:11.958Z,8.18
2022-12-25T06:05:41.454Z,8.35
2022-12-25T06:08:12.105Z,8.55
2022-12-25T06:10:39.937Z,8.07
2022-12-25T06:13:07.781Z,7.95
2022-12-25T06:15:35.639Z,8.65
2022-12-25T06:18:03.619Z,8.60
2022-12-25T06:20:32.386Z,8.55
2022-12-25T06:23:01.885Z,8.10
2022-12-25T06:25:29.847Z,8.77
2022-12-25T06:27:57.925Z,8.30
2022-12-25T06:30:25.794Z,8.30
2022-12-25T06:32:53.626Z,8.00
2022-12-25T06:35:21.393Z,8.40
2022-12-25T06:37:49.115Z,8.60
2022-12-25T06:40:18.446Z,8.77
2022-12-25T06:42:46.226Z,8.88
2022-12-25T06:45:14.117Z,9.43
2022-12-25T06:47:44.183Z,9.55
2022-12-25T06:50:12.043Z,9.88
2022-12-25T06:52:39.928Z,8.77
2022-12-25T06:55:08.382Z,9.60
2022-12-25T06:57:37.731Z,9.13
2022-12-25T07:00:06.905Z,8.82
2022-12-25T07:02:34.962Z,9.73
2022-12-25T07:05:03.404Z,9.70
2022-12-25T07:07:31.227Z,9.88
2022-12-25T07:09:59.040Z,9.83
2022-12-25T07:12:27.577Z,10.00
2022-12-25T07:14:57.166Z,9.95
2022-12-25T07:17:25.482Z,10.13
2022-12-25T07:19:53.380Z,10.38
2022-12-25T07:22:21.203Z,10.13
2022-12-25T07:24:49.016Z,10.70
2022-12-25T07:27:16.819Z,10.95
2022-12-25T07:29:44.582Z,10.45
2022-12-25T07:32:13.909Z,10.82
2022-12-25T07:34:41.831Z,10.60
2022-12-25T07:37:09.686Z,11.25
2022-12-25T07:39:37.446Z,10.48
2022-12-25T07:42:05.384Z,11.47
2022-12-25T07:44:33.293Z,10.55
2022-12-25T07:47:01.056Z,10.85
2022-12-25T07:49:30.290Z,11.70
2022-12-25T07:51:58.170Z,9.25
2022-12-25T07:54:25.967Z,10.13
2022-12-25T07:56:54.821Z,9.60
2022-12-25T07:59:22.718Z,9.95
2022-12-25T08:01:51.190Z,9.77
2022-12-25T08:04:20.257Z,10.20
2022-12-25T08:06:49.504Z,9.60
2022-12-25T08:09:17.406Z,10.23
2022-12-25T08:11:47.319Z,11.57
2022-12-25T08:14:15.244Z,10.60
2022-12-25T08:16:43.311Z,11.60
2022-12-25T08:19:11.668Z,10.30
2022-12-25T08:21:39.784Z,10.00
2022-12-25T08:24:09.390Z,10.65
2022-12-25T08:26:37.196Z,9.68
2022-12-25T08:29:05.128Z,9.57
2022-12-25T08:31:36.390Z,9.68
2022-12-25T08:34:07.078Z,9.93
2022-12-25T08:36:34.939Z,9.32
2022-12-25T08:39:03.548Z,8.88
2022-12-25T08:41:34.358Z,8.30
2022-12-25T08:44:02.124Z,9.18
2022-12-25T08:46:30.455Z,8.88
2022-12-25T08:48:58.605Z,9.88
2022-12-25T08:51:27.392Z,8.20
2022-12-25T08:54:00.337Z,8.98
2022-12-25T08:56:28.922Z,9.70
2022-12-25T08:58:58.109Z,8.82
2022-12-25T09:01:26.159Z,7.88
2022-12-25T09:03:54.150Z,7.80
2022-12-25T09:06:22.132Z,8.23
2022-12-25T09:08:50.165Z,8.52
2022-12-25T09:11:22.606Z,9.32
2022-12-25T09:13:50.605Z,8.90
2022-12-25T09:16:22.663Z,7.75
2022-12-25T09:18:50.728Z,8.10
2022-12-25T09:21:19.701Z,9.20
2022-12-25T09:23:47.539Z,9.10
2022-12-25T09:26:17.383Z,8.10
2022-12-25T09:28:51.331Z,11.18
2022-12-25T09:31:22.033Z,10.93
2022-12-25T09:33:50.059Z,9.90
2022-12-25T09:36:17.805Z,11.23
2022-12-25T09:38:45.738Z,13.15
2022-12-25T09:41:18.054Z,11.88
2022-12-25T09:43:48.501Z,9.82
2022-12-25T09:46:18.454Z,9.65
2022-12-25T09:49:00.181Z,9.50
2022-12-25T09:51:30.251Z,9.85
2022-12-25T09:54:02.028Z,7.80
2022-12-25T09:56:29.934Z,6.43
2022-12-25T09:58:57.943Z,6.90
2022-12-25T10:01:32.203Z,7.90
2022-12-25T10:04:27.062Z,10.57
2022-12-25T10:07:04.708Z,9.50
2022-12-25T10:09:50.187Z,10.48
2022-12-25T10:12:28.517Z,9.10
2022-12-25T10:15:08.483Z,7.53
2022-12-25T10:17:48.034Z,7.22
2022-12-25T10:20:21.377Z,6.97
2022-12-25T10:22:52.727Z,10.90
2022-12-25T10:25:22.748Z,9.85
2022-12-25T10:27:52.340Z,8.10
2022-12-25T10:30:24.107Z,7.37
2022-12-25T10:32:56.622Z,10.02
2022-12-25T10:35:27.809Z,8.00
2022-12-25T10:38:00.129Z,7.47
2022-12-25T10:40:32.405Z,6.20
2022-12-25T10:43:04.761Z,7.13
2022-12-25T10:45:32.553Z,6.60
2022-12-25T10:48:08.155Z,8.15
2022-12-25T10:50:45.972Z,7.18
2022-12-25T10:53:20.548Z,7.45
2022-12-25T10:55:59.047Z,7.60
2022-12-25T10:58:27.100Z,8.73
2022-12-25T11:00:56.619Z,8.70
2022-12-25T11:03:26.654Z,12.18
2022-12-25T11:05:55.937Z,19.20
2022-12-25T11:08:25.449Z,13.13
2022-12-25T11:10:55.357Z,15.73
2022-12-25T11:13:25.159Z,67.72
2022-12-25T11:16:03.645Z,17.73
2022-12-25T11:18:35.104Z,15.20
2022-12-25T11:21:15.632Z,10.38
2022-12-25T11:23:46.718Z,11.60
2022-12-25T11:26:14.875Z,13.63
2022-12-25T11:28:43.739Z,19.20
2022-12-25T11:31:15.030Z,16.67
2022-12-25T11:33:46.389Z,20.38
2022-12-25T11:36:20.815Z,18.50
2022-12-25T11:38:49.042Z,17.00
2022-12-25T11:41:20.605Z,17.90
2022-12-25T11:43:50.930Z,12.27
2022-12-25T11:46:21.994Z,10.85
2022-12-25T11:48:56.078Z,10.68
2022-12-25T11:51:27.061Z,10.88
2022-12-25T11:53:57.094Z,11.77
2022-12-25T11:56:26.530Z,9.63
2022-12-25T11:58:56.344Z,9.25
2022-12-25T12:01:31.009Z,10.23
2022-12-25T12:04:01.177Z,11.30
2022-12-25T12:06:33.939Z,14.57
2022-12-25T12:09:07.634Z,12.02
2022-12-25T12:11:40.476Z,10.15
2022-12-25T12:14:21.491Z,11.95
2022-12-25T12:16:49.687Z,13.48
2022-12-25T12:19:26.854Z,10.15
2022-12-25T12:21:57.020Z,10.38
2022-12-25T12:24:25.934Z,12.05
2022-12-25T12:27:05.215Z,10.95
2022-12-25T12:29:36.239Z,12.15
2022-12-25T12:32:05.418Z,12.90
2022-12-25T12:34:38.476Z,9.60
2022-12-25T12:37:09.315Z,10.25
2022-12-25T12:39:39.836Z,10.68
2022-12-25T12:42:14.298Z,10.70
2022-12-25T12:44:42.623Z,10.20
2022-12-25T12:47:29.536Z,10.63
2022-12-25T12:49:59.557Z,9.50
2022-12-25T12:52:33.914Z,10.13
2022-12-25T12:55:03.330Z,15.88
2022-12-25T12:57:34.496Z,12.82
2022-12-25T13:00:09.909Z,13.85
2022-12-25T13:02:58.916Z,14.03
2022-12-25T13:05:35.004Z,12.65
2022-12-25T13:08:14.196Z,13.07
2022-12-25T13:10:45.476Z,18.63
2022-12-25T13:13:17.080Z,15.00
2022-12-25T13:15:47.472Z,13.00
2022-12-25T13:18:15.887Z,16.93
2022-12-25T13:20:49.541Z,16.23
2022-12-25T13:23:26.249Z,16.08
2022-12-25T13:25:55.230Z,14.68
2022-12-25T13:28:28.023Z,12.77
2022-12-25T13:31:03.008Z,13.57
2022-12-25T13:33:31.054Z,18.08
2022-12-25T13:35:59.027Z,14.10
2022-12-25T13:38:29.397Z,16.63
2022-12-25T13:41:15.939Z,17.03
2022-12-25T13:43:44.877Z,17.60
2022-12-25T13:46:13.970Z,19.73
2022-12-25T13:48:41.819Z,17.60
2022-12-25T13:51:15.896Z,20.70
2022-12-25T13:53:45.541Z,22.90
2022-12-25T13:56:14.998Z,25.73
2022-12-25T13:58:43.427Z,22.35
2022-12-25T14:01:12.554Z,25.60
2022-12-25T14:03:42.841Z,26.42
2022-12-25T14:06:19.366Z,28.50
2022-12-25T14:08:49.289Z,32.10
2022-12-25T14:11:20.468Z,31.35
2022-12-25T14:13:49.883Z,46.97
2022-12-25T14:16:18.788Z,37.78
2022-12-25T14:18:54.877Z,27.83
2022-12-25T14:21:30.214Z,22.47
2022-12-25T14:23:59.706Z,17.05
2022-12-25T14:26:29.355Z,18.30
2022-12-25T14:29:02.986Z,19.00
2022-12-25T14:31:30.907Z,17.08
2022-12-25T14:33:59.951Z,17.48
2022-12-25T14:36:28.362Z,19.98
2022-12-25T14:39:02.022Z,18.80
2022-12-25T14:41:34.371Z,19.73
2022-12-25T14:44:04.737Z,25.13
2022-12-25T14:46:33.867Z,20.60
2022-12-25T14:49:02.708Z,15.10
2022-12-25T14:51:31.537Z,15.82
2022-12-25T14:54:03.020Z,18.17
2022-12-25T14:56:37.971Z,19.10
2022-12-25T14:59:07.219Z,18.17
2022-12-25T15:01:37.168Z,21.37
2022-12-25T15:04:07.554Z,26.30
2022-12-25T15:06:35.396Z,22.48
2022-12-25T15:09:07.044Z,28.20
2022-12-25T15:11:34.796Z,23.50
2022-12-25T15:14:02.586Z,25.23
2022-12-25T15:16:32.545Z,22.80
2022-12-25T15:19:01.730Z,23.80
2022-12-25T15:21:31.998Z,23.55
2022-12-25T15:24:00.643Z,23.17
2022-12-25T15:26:31.113Z,24.98
2022-12-25T15:28:59.308Z,23.03
2022-12-25T15:31:29.369Z,28.20
2022-12-25T15:33:59.409Z,28.40
2022-12-25T15:36:28.362Z,28.53
2022-12-25T15:38:56.528Z,32.10
2022-12-25T15:41:46.564Z,34.67
2022-12-25T15:44:16.170Z,27.23
2022-12-25T15:46:44.294Z,30.50
2022-12-25T15:49:12.190Z,31.20
2022-12-25T15:51:40.182Z,34.53
2022-12-25T15:54:08.293Z,34.20
2022-12-25T15:56:40.831Z,30.98
2022-12-25T15:59:09.846Z,32.55
2022-12-25T16:01:39.170Z,35.20
2022-12-25T16:04:06.951Z,29.45
2022-12-25T16:06:34.649Z,34.50
2022-12-25T16:09:02.331Z,29.92
2022-12-25T16:11:30.110Z,28.35
2022-12-25T16:13:57.894Z,28.20
2022-12-25T16:16:25.781Z,35.33
2022-12-25T16:18:55.222Z,33.10
2022-12-25T16:21:23.272Z,33.00
2022-12-25T16:23:51.109Z,34.60
2022-12-25T16:26:18.838Z,43.47
2022-12-25T16:28:46.570Z,44.85
2022-12-25T16:31:14.344Z,39.55
2022-12-25T16:33:42.305Z,39.80
2022-12-25T16:36:11.531Z,43.90
2022-12-25T16:38:39.272Z,37.87
2022-12-25T16:41:12.301Z,42.60
2022-12-25T16:43:40.974Z,38.35
2022-12-25T16:46:13.808Z,35.67
2022-12-25T16:48:42.253Z,34.67
2022-12-25T16:51:12.320Z,32.80
2022-12-25T16:53:40.292Z,34.20
2022-12-25T16:56:08.526Z,41.92
2022-12-25T16:58:37.922Z,51.83
2022-12-25T17:01:07.558Z,47.58
2022-12-25T17:03:35.372Z,49.17
2022-12-25T17:06:03.563Z,40.87
2022-12-25T17:08:32.818Z,38.57
2022-12-25T17:11:00.514Z,36.17
2022-12-25T17:13:28.262Z,46.15
2022-12-25T17:15:56.068Z,41.92
2022-12-25T17:18:26.975Z,40.97
2022-12-25T17:20:55.182Z,43.33
2022-12-25T17:23:22.989Z,43.05
2022-12-25T17:25:52.163Z,40.70
2022-12-25T17:28:19.875Z,41.13
2022-12-25T17:30:47.604Z,36.65
2022-12-25T17:33:15.328Z,38.05
2022-12-25T17:35:43.104Z,33.00
2022-12-25T17:38:10.913Z,35.45
2022-12-25T17:40:38.668Z,35.95
2022-12-25T17:43:07.681Z,33.65
2022-12-25T17:45:37.374Z,35.03
2022-12-25T17:48:05.336Z,39.20
2022-12-25T17:50:37.485Z,38.00
2022-12-25T17:53:08.856Z,32.33
2022-12-25T17:55:38.858Z,37.08
2022-12-25T17:58:08.072Z,37.78
2022-12-25T18:00:35.854Z,37.80
2022-12-25T18:03:10.860Z,37.85
2022-12-25T18:05:39.495Z,47.10
2022-12-25T18:08:07.198Z,40.03
2022-12-25T18:10:37.572Z,38.40
2022-12-25T18:13:07.079Z,33.53
2022-12-25T18:15:37.688Z,32.63
2022-12-25T18:18:05.897Z,38.72
2022-12-25T18:20:39.574Z,42.05
2022-12-25T18:23:07.680Z,54.78
2022-12-25T18:25:35.452Z,87.50
2022-12-25T18:28:03.179Z,100.95
2022-12-25T18:30:32.294Z,81.13
2022-12-25T18:33:00.115Z,51.40
2022-12-25T18:35:29.923Z,51.00
2022-12-25T18:37:57.600Z,48.67
2022-12-25T18:40:25.559Z,43.78
2022-12-25T18:42:57.822Z,41.50
2022-12-25T18:45:32.002Z,41.25
2022-12-25T18:48:03.180Z,44.45
2022-12-25T18:50:31.193Z,41.63
2022-12-25T18:52:58.903Z,37.70
2022-12-25T18:55:26.632Z,47.77
2022-12-25T18:57:54.435Z,34.92
2022-12-25T19:00:22.377Z,37.33
2022-12-25T19:02:51.699Z,47.17
2022-12-25T19:05:19.536Z,47.80
2022-12-25T19:07:47.206Z,48.60
2022-12-25T19:10:14.944Z,47.35
2022-12-25T19:12:42.829Z,47.92
2022-12-25T19:15:11.129Z,42.13
2022-12-25T19:17:38.803Z,40.40
2022-12-25T19:20:09.535Z,44.70
2022-12-25T19:22:37.358Z,46.85
2022-12-25T19:25:05.790Z,46.23
2022-12-25T19:27:33.545Z,51.75
2022-12-25T19:30:01.431Z,51.23
2022-12-25T19:32:29.145Z,50.28
2022-12-25T19:34:56.856Z,50.55
2022-12-25T19:37:26.227Z,47.10
2022-12-25T19:39:53.955Z,54.47
2022-12-25T19:42:21.966Z,43.25
2022-12-25T19:44:49.691Z,42.90
2022-12-25T19:47:17.431Z,44.60
2022-12-25T19:49:47.397Z,54.43
2022-12-25T19:52:18.722Z,51.83
2022-12-25T19:54:47.800Z,38.38
2022-12-25T19:57:15.552Z,37.38
2022-12-25T19:59:43.287Z,51.55
2022-12-25T20:02:11.291Z,44.53
2022-12-25T20:04:39.142Z,42.65
2022-12-25T20:07:06.835Z,45.13
2022-12-25T20:09:34.801Z,46.83
2022-12-25T20:12:03.964Z,37.22
2022-12-25T20:14:31.655Z,44.00
2022-12-25T20:16:59.423Z,40.20
2022-12-25T20:19:27.160Z,44.50
2022-12-25T20:21:54.903Z,47.97
2022-12-25T20:24:24.606Z,38.60
2022-12-25T20:26:58.715Z,38.88
2022-12-25T20:29:28.246Z,46.75
2022-12-25T20:31:55.983Z,33.22
2022-12-25T20:34:23.730Z,53.80
2022-12-25T20:36:51.551Z,54.95
2022-12-25T20:39:19.329Z,61.72
2022-12-25T20:41:47.778Z,79.63
2022-12-25T20:44:15.454Z,107.63
2022-12-25T20:46:44.628Z,54.97
2022-12-25T20:49:12.564Z,51.95
2022-12-25T20:51:40.619Z,50.88
2022-12-25T20:54:09.322Z,58.22
2022-12-25T20:56:37.686Z,49.88
2022-12-25T20:59:05.459Z,45.45
2022-12-25T21:01:33.416Z,39.45
2022-12-25T21:04:02.671Z,51.33
2022-12-25T21:06:30.805Z,67.23
2022-12-25T21:08:58.513Z,54.53
2022-12-25T21:11:26.277Z,52.22
2022-12-25T21:13:54.243Z,43.45
2022-12-25T21:16:23.717Z,41.87
2022-12-25T21:18:53.406Z,44.88
2022-12-25T21:21:23.249Z,43.87
2022-12-25T21:23:51.228Z,41.08
2022-12-25T21:26:20.889Z,50.05
2022-12-25T21:28:49.320Z,41.78
2022-12-25T21:31:17.332Z,38.85
2022-12-25T21:33:53.492Z,39.40
2022-12-25T21:36:25.103Z,38.85
2022-12-25T21:38:54.413Z,39.03
2022-12-25T21:41:22.514Z,36.83
2022-12-25T21:43:50.289Z,41.90
2022-12-25T21:46:18.376Z,43.95
2022-12-25T21:48:46.519Z,41.47
2022-12-25T21:51:33.911Z,35.05
2022-12-25T21:54:03.324Z,31.35
2022-12-25T21:56:31.867Z,32.28
2022-12-25T21:59:00.702Z,31.60
2022-12-25T22:01:28.581Z,29.65
2022-12-25T22:03:56.953Z,31.73
2022-12-25T22:06:42.184Z,34.38
2022-12-25T22:09:11.290Z,30.63
2022-12-25T22:11:56.592Z,30.38
2022-12-25T22:14:53.018Z,31.00
2022-12-25T22:17:40.033Z,29.20
2022-12-25T22:20:10.434Z,32.20
2022-12-25T22:22:38.307Z,31.45
2022-12-25T22:25:09.146Z,30.08
2022-12-25T22:27:38.803Z,33.47
2022-12-25T22:30:08.640Z,40.60
2022-12-25T22:32:36.424Z,26.80
2022-12-25T22:35:05.116Z,31.47
2022-12-25T22:37:33.333Z,31.33
2022-12-25T22:40:02.409Z,30.08
2022-12-25T22:42:31.594Z,26.45
2022-12-25T22:44:59.287Z,30.83
2022-12-25T22:47:26.972Z,29.15
2022-12-25T22:49:54.636Z,25.80
2022-12-25T22:52:22.320Z,31.35
2022-12-25T22:54:50.135Z,27.67
2022-12-25T22:57:17.856Z,25.30
2022-12-25T22:59:47.060Z,27.27
2022-12-25T23:02:14.995Z,25.20
2022-12-25T23:04:43.019Z,24.42
2022-12-25T23:07:14.325Z,25.02
2022-12-25T23:09:42.606Z,24.70
2022-12-25T23:12:31.508Z,23.55
2022-12-25T23:14:59.622Z,24.48
2022-12-25T23:17:44.686Z,24.17
2022-12-25T23:20:32.404Z,23.17
2022-12-25T23:23:18.413Z,23.03
2022-12-25T23:26:03.414Z,20.80
2022-12-25T23:28:51.514Z,22.10
2022-12-25T23:31:25.456Z,21.38
2022-12-25T23:33:53.335Z,22.10
2022-12-25T23:36:21.146Z,20.35
2022-12-25T23:38:48.955Z,22.57
2022-12-25T23:41:16.642Z,19.48
2022-12-25T23:43:44.500Z,18.80
2022-12-25T23:46:12.288Z,19.40
2022-12-25T23:48:41.552Z,19.05
2022-12-25T23:51:12.307Z,18.77
2022-12-25T23:53:40.134Z,20.45
2022-12-25T23:56:10.574Z,20.45
2022-12-25T23:58:38.497Z,18.67
